• Join FlightAware (Why Join?)
  • Login
  • US Flag 
11:44AM EDT


 

Airport Tracker/Info


-or-


 

Live Flight TrackerFlight Track Log ✈ SWA1725 ✈ 06-Jul-2013 ✈ KMDW - KSEA

Flight Track Log - Related Links

Times and Time Zones

All times are in EDT time to prevent confusion due to time zone crossing. See the SWA1725 flight status page for this flight to view local times or setup timezone preferences in your user account.

Time Position Orientation Groundspeed Altitude Reporting Facility
EDT Latitude Longitude Course Direction KTS MPH feet Rate Location/Type
09:57AM 41.8000 -87.8167 360° North 199 229 2,600  Level Chicago TRACON
09:57AM 41.8000 -87.8167 242° Southwest 199 229 2,600 420 Level Chicago TRACON
09:58AM 41.7667 -87.9000 242° Southwest 249 287 3,000 420 Climbing Chicago TRACON
09:58AM 41.7667 -87.9000 242° Southwest 249 287 3,000  Level Chicago TRACON
09:59AM 41.7619 -87.9411 261° West 240 276 3,000  Level Chicago Center
09:59AM 41.7619 -87.9411 261° West 240 276 3,000 720 Level Chicago Center
10:00AM 41.7703 -88.0397 276° West 261 300 3,800 720 Climbing Chicago Center
10:00AM 41.7703 -88.0397 276° West 261 300 3,800 780 Level Chicago Center
10:01AM 41.7806 -88.1372 278° West 267 307 4,600 780 Climbing Chicago Center
10:01AM 41.7806 -88.1372 278° West 267 307 4,600 840 Level Chicago Center
10:02AM 41.7922 -88.2367 279° West 272 313 5,500 840 Climbing Chicago Center
10:02AM 41.7922 -88.2367 279° West 272 313 5,500 3,000 Level Chicago Center
10:03AM 41.8075 -88.3575 280° West 277 319 8,600 3,000 Climbing Chicago Center
10:03AM 41.8075 -88.3575 280° West 277 319 8,600 2,760 Level Chicago Center
10:04AM 41.8133 -88.4633 274° West 285 328 11,500 2,760 Climbing Chicago Center
10:04AM 41.8133 -88.4633 274° West 285 328 11,500 1,740 Level Chicago Center
10:05AM 41.8128 -88.5744 270° West 299 344 13,300 1,740 Climbing Chicago Center
10:05AM 41.8128 -88.5744 270° West 299 344 13,300 1,920 Level Chicago Center
10:06AM 41.8125 -88.6903 270° West 310 357 15,300 1,920 Climbing Chicago Center
10:06AM 41.8125 -88.6903 270° West 310 357 15,300 1,260 Level Chicago Center
10:07AM 41.8531 -88.8150 294° West 366 421 16,600 1,260 Climbing Chicago Center
10:07AM 41.8531 -88.8150 294° West 366 421 16,600 1,980 Level Chicago Center
10:08AM 41.8967 -88.9492 294° West 391 450 18,700 1,980 Climbing Chicago Center
10:08AM 41.8967 -88.9492 294° West 391 450 18,700 2,220 Level Chicago Center
10:09AM 41.9522 -89.1139 294° West 403 464 21,000 2,220 Climbing Chicago Center
10:09AM 41.9522 -89.1139 294° West 403 464 21,000 1,920 Level Chicago Center
10:10AM 42.0006 -89.2572 294° West 421 484 23,000 1,920 Climbing Chicago Center
10:10AM 42.0006 -89.2572 294° West 421 484 23,000 1,920 Level Chicago Center
10:11AM 42.0422 -89.3992 292° West 412 474 25,000 1,920 Climbing Chicago Center
10:11AM 42.0422 -89.3992 292° West 412 474 25,000 2,100 Level Chicago Center
10:12AM 42.0469 -89.5506 272° West 403 464 27,200 2,100 Climbing Chicago Center
10:12AM 42.0469 -89.5506 272° West 403 464 27,200 1,140 Level Chicago Center
10:13AM 42.0514 -89.6997 272° West 400 460 28,400 1,140 Climbing Chicago Center
10:13AM 42.0514 -89.6997 272° West 400 460 28,400 240 Level Chicago Center
10:14AM 42.0572 -89.8572 273° West 421 484 28,700 240 Climbing Chicago Center
10:14AM 42.0572 -89.8572 273° West 421 484 28,700 960 Level Chicago Center
10:15AM 42.0664 -90.0286 274° West 452 520 29,700 960 Climbing Chicago Center
10:15AM 42.0664 -90.0286 274° West 452 520 29,700 1,560 Level Chicago Center
10:16AM 42.0747 -90.2350 273° West 463 533 31,300 1,560 Climbing Chicago Center
10:16AM 42.0747 -90.2350 273° West 463 533 31,300 1,500 Level Chicago Center
10:17AM 42.0794 -90.4003 272° West 449 517 32,900 1,500 Climbing Chicago Center
10:17AM 42.0794 -90.4003 272° West 449 517 32,900 960 Level Chicago Center
10:18AM 42.1000 -90.5603 280° West 449 517 33,900 960 Climbing Chicago Center
10:18AM 42.1000 -90.5603 280° West 449 517 33,900 60 Level Chicago Center
10:19AM 42.1528 -90.7117 295° West 449 517 34,000 60 Climbing Chicago Center
10:19AM 42.1528 -90.7117 295° West 449 517 34,000  Level Chicago Center
10:20AM 42.2050 -90.8656 295° West 454 522 34,000  Level Chicago Center
10:20AM 42.2050 -90.8656 295° West 454 522 34,000  Level Chicago Center
10:21AM 42.2589 -91.0189 295° West 456 525 34,000  Level Chicago Center
10:21AM 42.2589 -91.0189 295° West 456 525 34,000  Level Chicago Center
10:22AM 42.3233 -91.2061 295° West 459 528 34,000  Level Chicago Center
10:22AM 42.3233 -91.2061 295° West 459 528 34,000  Level Chicago Center
10:23AM 42.3767 -91.3617 295° West 459 528 34,000  Level Chicago Center
10:23AM 42.3767 -91.3617 295° West 459 528 34,000  Level Chicago Center
10:24AM 42.4303 -91.5178 295° West 460 529 34,000  Level Chicago Center
10:24AM 42.4303 -91.5178 295° West 460 529 34,000  Level Chicago Center
10:25AM 42.4822 -91.6756 294° West 459 528 34,000  Level Chicago Center
10:25AM 42.4822 -91.6756 294° West 459 528 34,000  Level Chicago Center
10:26AM 42.5353 -91.8333 295° West 458 527 34,000  Level Chicago Center
10:26AM 42.5353 -91.8333 295° West 458 527 34,000  Level Chicago Center
10:27AM 42.5881 -91.9894 295° West 456 525 34,000  Level Chicago Center
10:27AM 42.5881 -91.9894 295° West 456 525 34,000  Level Chicago Center
10:28AM 42.6500 -92.1753 294° West 451 519 34,000  Level Chicago Center
10:28AM 42.6500 -92.1753 294° West 451 519 34,000  Level Chicago Center
10:29AM 42.7003 -92.3275 294° West 446 513 34,000  Level Chicago Center
10:29AM 42.7003 -92.3275 294° West 446 513 34,000  Level Chicago Center
10:31AM 42.7506 -92.4792 294° West 444 511 34,000  Level Chicago Center
10:31AM 42.7506 -92.4792 294° West 444 511 34,000  Level Chicago Center
10:32AM 42.8000 -92.6308 294° West 442 509 34,000  Level Chicago Center
10:32AM 42.8000 -92.6308 294° West 442 509 34,000  Level Chicago Center
10:33AM 42.8508 -92.7825 295° West 443 510 34,000  Level Chicago Center
10:33AM 42.8508 -92.7825 295° West 443 510 34,000  Level Chicago Center
10:34AM 42.8994 -92.9333 294° West 441 507 34,000  Level Chicago Center
10:34AM 42.8994 -92.9333 294° West 441 507 34,000  Level Chicago Center
10:35AM 42.9575 -93.1172 293° West 442 509 34,000  Level Chicago Center
10:35AM 42.9575 -93.1172 293° West 442 509 34,000  Level Chicago Center
10:36AM 43.0067 -93.2681 294° West 441 507 34,000  Level Chicago Center
10:36AM 43.0067 -93.2681 294° West 441 507 34,000  Level Chicago Center
10:37AM 43.0536 -93.4200 293° West 438 504 34,000  Level Chicago Center
10:37AM 43.0536 -93.4200 293° West 438 504 34,000  Level Chicago Center
10:38AM 43.1025 -93.5719 294° West 439 505 34,000  Level Chicago Center
10:38AM 43.1025 -93.5719 294° West 439 505 34,000  Level Chicago Center
10:39AM 43.1497 -93.7242 293° West 439 505 34,000  Level Chicago Center
10:39AM 43.1497 -93.7242 293° West 439 505 34,000  Level Chicago Center
10:40AM 43.2067 -93.9044 293° West 435 501 34,000  Level Chicago Center
10:40AM 43.2067 -93.9044 293° West 435 501 34,000  Level Chicago Center
10:41AM 43.2628 -94.0833 293° West 431 496 34,000  Level Minneapolis Center
10:41AM 43.2628 -94.0833 293° West 431 496 34,000  Level Minneapolis Center
10:42AM 43.3133 -94.2486 293° West 428 493 34,000  Level Minneapolis Center
10:42AM 43.3133 -94.2486 293° West 428 493 34,000  Level Minneapolis Center
10:43AM 43.3575 -94.3922 293° West 425 489 34,000  Level Minneapolis Center
10:43AM 43.3575 -94.3922 293° West 425 489 34,000  Level Minneapolis Center
10:44AM 43.4031 -94.5414 293° West 424 488 34,000  Level Minneapolis Center
10:44AM 43.4031 -94.5414 293° West 424 488 34,000  Level Minneapolis Center
10:45AM 43.4489 -94.6914 293° West 426 490 34,000  Level Minneapolis Center
10:45AM 43.4489 -94.6914 293° West 426 490 34,000  Level Minneapolis Center
10:46AM 43.4947 -94.8422 293° West 427 491 34,000  Level Minneapolis Center
10:46AM 43.4947 -94.8422 293° West 427 491 34,000  Level Minneapolis Center
10:47AM 43.5497 -95.0250 293° West 430 495 34,000  Level Minneapolis Center
10:47AM 43.5497 -95.0250 293° West 430 495 34,000  Level Minneapolis Center
10:48AM 43.5944 -95.1781 292° West 431 496 34,000  Level Minneapolis Center
10:48AM 43.5944 -95.1781 292° West 431 496 34,000  Level Minneapolis Center
10:49AM 43.6403 -95.3319 292° West 433 498 34,000  Level Minneapolis Center
10:49AM 43.6403 -95.3319 292° West 433 498 34,000  Level Minneapolis Center
10:50AM 43.6858 -95.4881 292° West 438 504 34,000  Level Minneapolis Center
10:50AM 43.6858 -95.4881 292° West 438 504 34,000  Level Minneapolis Center
10:51AM 43.7306 -95.6417 292° West 433 498 34,000  Level Minneapolis Center
10:51AM 43.7306 -95.6417 292° West 433 498 34,000  Level Minneapolis Center
10:52AM 43.7756 -95.7953 292° West 431 496 34,000  Level Minneapolis Center
10:52AM 43.7756 -95.7953 292° West 431 496 34,000  Level Minneapolis Center
10:53AM 43.8203 -95.9489 292° West 430 495 34,000  Level Minneapolis Center
10:53AM 43.8203 -95.9489 292° West 430 495 34,000  Level Minneapolis Center
10:54AM 43.8725 -96.1350 291° West 430 495 34,000  Level Minneapolis Center
10:54AM 43.8725 -96.1350 291° West 430 495 34,000  Level Minneapolis Center
10:55AM 43.9167 -96.2897 292° West 427 491 34,000  Level Minneapolis Center
10:55AM 43.9167 -96.2897 292° West 427 491 34,000  Level Minneapolis Center
10:57AM 43.9608 -96.4458 292° West 430 495 34,000  Level Minneapolis Center
10:57AM 43.9608 -96.4458 292° West 430 495 34,000  Level Minneapolis Center
10:58AM 44.0042 -96.6006 291° West 427 491 34,000  Level Minneapolis Center
10:58AM 44.0042 -96.6006 291° West 427 491 34,000  Level Minneapolis Center
10:59AM 44.0461 -96.7525 291° West 422 486 34,000  Level Minneapolis Center
10:59AM 44.0461 -96.7525 291° West 422 486 34,000  Level Minneapolis Center
11:00AM 44.0886 -96.9044 291° West 420 483 34,000  Level Minneapolis Center
11:00AM 44.0886 -96.9044 291° West 420 483 34,000  Level Minneapolis Center
11:01AM 44.1306 -97.0553 291° West 419 482 34,000  Level Minneapolis Center
11:01AM 44.1306 -97.0553 291° West 419 482 34,000  Level Minneapolis Center
11:02AM 44.1708 -97.2058 291° West 417 480 34,000  Level Minneapolis Center
11:02AM 44.1708 -97.2058 291° West 417 480 34,000  Level Minneapolis Center
11:03AM 44.2214 -97.3864 291° West 417 480 34,000  Level Minneapolis Center
11:03AM 44.2214 -97.3864 291° West 417 480 34,000  Level Minneapolis Center
11:04AM 44.2619 -97.5356 291° West 414 476 34,000  Level Minneapolis Center
11:04AM 44.2619 -97.5356 291° West 414 476 34,000  Level Minneapolis Center
11:05AM 44.3019 -97.6856 290° West 414 476 34,000  Level Minneapolis Center
11:05AM 44.3019 -97.6856 290° West 414 476 34,000  Level Minneapolis Center
11:06AM 44.3411 -97.8331 290° West 409 471 34,000  Level Minneapolis Center
11:06AM 44.3411 -97.8331 290° West 409 471 34,000  Level Minneapolis Center
11:07AM 44.3808 -97.9828 290° West 410 472 34,000  Level Minneapolis Center
11:07AM 44.3808 -97.9828 290° West 410 472 34,000  Level Minneapolis Center
11:08AM 44.4211 -98.1306 291° West 409 471 34,000  Level Minneapolis Center
11:08AM 44.4211 -98.1306 291° West 409 471 34,000  Level Minneapolis Center
11:09AM 44.4669 -98.3094 290° West 408 470 34,000  Level Minneapolis Center
11:09AM 44.4669 -98.3094 290° West 408 470 34,000  Level Minneapolis Center
11:10AM 44.5008 -98.4356 291° West 409 471 34,000  Level Minneapolis Center
11:10AM 44.5008 -98.4356 291° West 409 471 34,000  Level Minneapolis Center
11:11AM 44.5467 -98.6167 290° West 411 473 34,000  Level Minneapolis Center
11:11AM 44.5467 -98.6167 290° West 411 473 34,000  Level Minneapolis Center
11:12AM 44.5869 -98.7678 291° West 414 476 34,000  Level Minneapolis Center
11:12AM 44.5869 -98.7678 291° West 414 476 34,000  Level Minneapolis Center
11:13AM 44.6250 -98.9203 289° West 414 476 34,000  Level Minneapolis Center
11:13AM 44.6250 -98.9203 289° West 414 476 34,000  Level Minneapolis Center
11:14AM 44.6644 -99.0761 290° West 421 484 34,000  Level Minneapolis Center
11:14AM 44.6644 -99.0761 290° West 421 484 34,000  Level Minneapolis Center
11:15AM 44.7036 -99.2317 290° West 422 486 34,000  Level Minneapolis Center
11:15AM 44.7036 -99.2317 290° West 422 486 34,000 660 Level Minneapolis Center
11:16AM 44.7411 -99.3861 289° West 419 482 34,700 660 Climbing Minneapolis Center
11:16AM 44.7411 -99.3861 289° West 419 482 34,700 1,200 Level Minneapolis Center
11:17AM 44.7858 -99.5664 289° West 409 471 36,000 1,200 Climbing Minneapolis Center
11:17AM 44.7858 -99.5664 289° West 409 471 36,000  Level Minneapolis Center
11:18AM 44.8225 -99.7169 289° West 406 467 36,000  Level Minneapolis Center
11:18AM 44.8225 -99.7169 289° West 406 467 36,000  Level Minneapolis Center
11:19AM 44.8589 -99.8692 289° West 406 467 36,000  Level Minneapolis Center
11:19AM 44.8589 -99.8692 289° West 406 467 36,000  Level Minneapolis Center
11:25AM 45.0822 -100.7931 289° West 409 471 36,000  Level Minneapolis Center
11:26AM 45.1175 -100.9469 288° West 411 473 36,000  Level Minneapolis Center
11:27AM 45.1611 -101.1289 289° West 407 468 36,000  Level Minneapolis Center
11:29AM 45.1964 -101.2786 289° West 403 464 36,000  Level Minneapolis Center
11:30AM 45.2303 -101.4297 288° West 402 463 36,000  Level Minneapolis Center
11:31AM 45.2658 -101.5819 288° West 405 466 36,000  Level Minneapolis Center
11:32AM 45.2992 -101.7353 287° West 406 467 36,000  Level Minneapolis Center
11:33AM 45.3339 -101.8881 288° West 406 467 36,000  Level Minneapolis Center
11:34AM 45.3689 -102.0422 288° West 409 471 36,000  Level Minneapolis Center
11:35AM 45.4094 -102.2289 287° West 411 473 36,000  Level Minneapolis Center
11:36AM 45.4425 -102.3856 287° West 413 475 36,000  Level Minneapolis Center
11:37AM 45.4761 -102.5419 287° West 413 475 36,000  Level Minneapolis Center
11:38AM 45.5103 -102.6981 287° West 413 475 36,000  Level Minneapolis Center
11:39AM 45.5444 -102.8544 287° West 413 475 36,000  Level Minneapolis Center
11:40AM 45.5794 -103.0192 287° West 407 468 36,000  Level Minneapolis Center
11:41AM 45.6106 -103.1728 286° West 405 466 36,000  Level Minneapolis Center
11:42AM 45.6417 -103.3236 286° West 404 465 36,000  Level Salt Lake Center
11:43AM 45.6736 -103.4769 287° West 402 463 36,000  Level Salt Lake Center
11:44AM 45.7108 -103.6589 286° West 400 460 36,000  Level Salt Lake Center
11:45AM 45.7417 -103.8147 286° West 404 465 36,000  Level Salt Lake Center
11:46AM 45.7717 -103.9656 286° West 398 458 36,000  Level Salt Lake Center
11:47AM 45.8022 -104.1178 286° West 398 458 36,000  Level Salt Lake Center
11:48AM 45.8325 -104.2694 286° West 396 456 36,000  Level Salt Lake Center
11:49AM 45.8619 -104.4217 286° West 396 456 36,000  Level Salt Lake Center
11:50AM 45.8981 -104.6031 286° West 401 461 36,000  Level Salt Lake Center
11:51AM 45.9275 -104.7578 285° West 403 464 36,000  Level Salt Lake Center
11:52AM 45.9556 -104.9103 285° West 398 458 36,000  Level Salt Lake Center
11:53AM 45.9850 -105.0678 285° West 404 465 36,000  Level Salt Lake Center
11:54AM 46.0153 -105.2250 286° West 407 468 36,000  Level Salt Lake Center
11:55AM 46.0503 -105.4117 285° West 407 468 36,000  Level Salt Lake Center
11:56AM 46.0797 -105.5664 285° West 404 465 36,000  Level Salt Lake Center
11:57AM 46.1072 -105.7200 285° West 401 461 36,000  Level Salt Lake Center
11:58AM 46.1342 -105.8742 284° West 399 459 36,000  Level Salt Lake Center
12:00PM 46.1633 -106.0278 285° West 399 459 36,000  Level Salt Lake Center
12:01PM 46.1981 -106.2150 285° West 402 463 36,000  Level Salt Lake Center
12:02PM 46.2261 -106.3719 285° West 404 465 36,000  Level Salt Lake Center
12:03PM 46.2542 -106.5289 285° West 405 466 36,000  Level Salt Lake Center
12:04PM 46.2825 -106.6836 285° West 402 463 36,000  Level Salt Lake Center
12:05PM 46.3092 -106.8381 284° West 400 460 36,000  Level Salt Lake Center
12:06PM 46.3356 -106.9931 284° West 399 459 36,000  Level Salt Lake Center
12:07PM 46.3669 -107.1792 284° West 398 458 36,000  Level Salt Lake Center
12:08PM 46.3931 -107.3353 284° West 400 460 36,000  Level Salt Lake Center
12:09PM 46.4186 -107.4933 283° West 399 459 36,000  Level Salt Lake Center
12:10PM 46.4447 -107.6483 284° West 399 459 36,000  Level Salt Lake Center
12:11PM 46.4694 -107.8047 283° West 402 463 36,000  Level Salt Lake Center
12:12PM 46.4953 -107.9594 284° West 397 457 36,000  Level Salt Lake Center
12:13PM 46.5250 -108.1456 283° West 396 456 36,000  Level Salt Lake Center
12:14PM 46.5494 -108.2997 283° West 395 455 36,000  Level Salt Lake Center
12:15PM 46.5731 -108.4531 283° West 393 452 36,000  Level Salt Lake Center
12:16PM 46.5969 -108.6053 283° West 389 448 36,000  Level Salt Lake Center
12:17PM 46.6219 -108.7594 283° West 393 452 36,000  Level Salt Lake Center
12:18PM 46.6444 -108.9122 282° West 389 448 36,000  Level Salt Lake Center
12:19PM 46.6731 -109.0989 283° West 393 452 36,000  Level Salt Lake Center
12:20PM 46.6967 -109.2547 283° West 394 453 36,000  Level Salt Lake Center
12:21PM 46.7225 -109.4203 283° West 397 457 36,000  Level Salt Lake Center
12:22PM 46.7439 -109.5772 281° West 395 455 36,000  Level Salt Lake Center
12:23PM 46.7669 -109.7319 282° West 392 451 36,000  Level Salt Lake Center
12:24PM 46.7897 -109.8844 282° West 389 448 36,000  Level Salt Lake Center
12:25PM 46.8106 -110.0406 281° West 390 449 36,000  Level Salt Lake Center
12:26PM 46.8328 -110.1936 282° West 388 447 36,000  Level Salt Lake Center
12:27PM 46.8586 -110.3800 282° West 389 448 36,000  Level Salt Lake Center
12:28PM 46.8806 -110.5372 282° West 393 452 36,000  Level Salt Lake Center
12:29PM 46.9017 -110.6944 281° West 395 455 36,000  Level Salt Lake Center
12:31PM 46.9225 -110.8536 281° West 396 456 36,000  Level Salt Lake Center
12:32PM 46.9425 -111.0128 280° West 397 457 36,000  Level Salt Lake Center
12:33PM 46.9639 -111.1753 281° West 402 463 36,000  Level Salt Lake Center
12:34PM 46.9858 -111.3358 281° West 403 464 36,000  Level Salt Lake Center
12:35PM 47.0100 -111.5328 280° West 407 468 36,000  Level Salt Lake Center
12:36PM 47.0317 -111.6969 281° West 408 470 36,000  Level Salt Lake Center
12:37PM 47.0511 -111.8611 280° West 408 470 36,000  Level Salt Lake Center
12:38PM 47.0722 -112.0242 281° West 408 470 36,000  Level Salt Lake Center
12:39PM 47.0911 -112.1864 280° West 404 465 36,000  Level Salt Lake Center
12:40PM 47.1111 -112.3472 280° West 402 463 36,000  Level Salt Lake Center
12:41PM 47.1303 -112.5086 280° West 400 460 36,000  Level Salt Lake Center
12:42PM 47.1539 -112.7025 280° West 402 463 36,000  Level Salt Lake Center
12:43PM 47.1731 -112.8639 280° West 401 461 36,000  Level Salt Lake Center
12:44PM 47.1889 -113.0108 279° West 405 466 36,000  Level Salt Lake Center
12:45PM 47.2106 -113.2067 279° West 406 467 36,000  Level Salt Lake Center
12:46PM 47.2289 -113.3722 279° West 409 471 36,000  Level Salt Lake Center
12:47PM 47.2472 -113.5367 279° West 409 471 36,000  Level Salt Lake Center
12:48PM 47.2656 -113.7028 279° West 411 473 36,000  Level Salt Lake Center
12:49PM 47.2822 -113.8669 279° West 407 468 36,000  Level Salt Lake Center
12:50PM 47.3008 -114.0325 279° West 408 470 36,000  Level Salt Lake Center
12:51PM 47.3206 -114.2311 278° West 407 468 36,000  Level Salt Lake Center
12:52PM 47.3378 -114.3969 279° West 407 468 36,000  Level Salt Lake Center
12:53PM 47.3542 -114.5636 278° West 408 470 36,000  Level Salt Lake Center
12:54PM 47.3703 -114.7283 278° West 405 466 36,000  Level Salt Lake Center
12:55PM 47.3867 -114.8942 278° West 407 468 36,000  Level Salt Lake Center
12:56PM 47.4025 -115.0581 278° West 404 465 36,000  Level Salt Lake Center
12:57PM 47.4183 -115.2225 278° West 403 464 36,000  Level Salt Lake Center
12:58PM 47.4336 -115.3867 278° West 404 465 36,000  Level Salt Lake Center
12:59PM 47.4508 -115.5819 278° West 402 463 36,000  Level Salt Lake Center
01:00PM 47.4631 -115.7450 276° West 399 459 36,000  Level Salt Lake Center
01:02PM 47.4733 -115.9067 275° West 398 458 36,000  Level Salt Lake Center
01:03PM 47.4831 -116.0783 275° West 396 456 36,000  Level Salt Lake Center
01:04PM 47.4933 -116.2417 275° West 399 459 36,000  Level Salt Lake Center
01:05PM 47.5089 -116.4047 278° West 401 461 36,000  Level Salt Lake Center
01:06PM 47.5272 -116.6006 278° West 402 463 36,000  Level Seattle Center
01:07PM 47.5422 -116.7644 278° West 404 465 36,000  Level Seattle Center
01:08PM 47.5572 -116.9275 278° West 403 464 36,000  Level Seattle Center
01:09PM 47.5711 -117.0822 278° West 403 464 36,000  Level Seattle Center
01:10PM 47.5867 -117.2722 277° West 403 464 36,000  Level Seattle Center
01:11PM 47.6006 -117.4350 277° West 402 463 36,000  Level Seattle Center
01:12PM 47.6142 -117.5978 277° West 399 459 36,000  Level Seattle Center
01:13PM 47.6272 -117.7594 277° West 397 457 36,000  Level Seattle Center
01:14PM 47.6406 -117.9208 277° West 397 457 36,000  Level Seattle Center
01:15PM 47.6528 -118.0822 276° West 396 456 36,000  Level Seattle Center
01:16PM 47.6656 -118.2444 277° West 397 457 36,000  Level Seattle Center
01:17PM 47.6783 -118.4058 277° West 396 456 36,000  Level Seattle Center
01:18PM 47.6925 -118.6014 276° West 397 457 36,000  Level Seattle Center
01:19PM 47.7036 -118.7639 276° West 398 458 36,000  Level Seattle Center
01:20PM 47.7147 -118.9256 276° West 395 455 36,000  Level Seattle Center
01:21PM 47.7264 -119.0883 276° West 398 458 36,000 -480 Level Seattle Center
01:22PM 47.7383 -119.2519 276° West 400 460 35,100 -960 Descending Seattle Center
01:23PM 47.7497 -119.4183 276° West 404 465 34,100 -1,020 Descending Seattle Center
01:24PM 47.7597 -119.5861 275° West 409 471 33,100 -960 Descending Seattle Center
01:25PM 47.7714 -119.7558 276° West 413 475 32,200 -960 Descending Seattle Center
01:26PM 47.7814 -119.9242 275° West 411 473 31,200 -1,080 Descending Seattle Center
01:27PM 47.7908 -120.0903 275° West 406 467 30,100 -1,140 Descending Seattle Center
01:28PM 47.8039 -120.2878 276° West 402 463 28,900 -1,200 Descending Seattle Center
01:29PM 47.8119 -120.4486 274° West 395 455 27,700 -1,620 Descending Seattle Center
01:30PM 47.8208 -120.6056 275° West 385 443 25,700 -1,980 Descending Seattle Center
01:31PM 47.8294 -120.7594 275° West 376 433 23,700 -1,920 Descending Seattle Center
01:32PM 47.8408 -120.9042 277° West 359 413 21,800 -1,920 Descending Seattle Center
01:33PM 47.8475 -121.0469 274° West 350 403 19,900 -1,920 Descending Seattle Center
01:34PM 47.8558 -121.1867 275° West 342 394 18,000 -1,860 Descending Seattle Center
01:35PM 47.8606 -121.3228 273° West 334 384 16,200 -1,920 Descending Seattle Center
01:36PM 47.8725 -121.4825 276° West 326 375 14,100 -1,860 Descending Seattle Center
01:37PM 47.8797 -121.6122 275° West 320 368 12,400 -1,320 Descending Seattle Center
01:38PM 47.8614 -121.7392 258° West 304 350 11,400 -1,200 Descending Seattle Center
01:39PM 47.8050 -121.8139 222° Southwest 292 336 10,000 -1,620 Descending Seattle Center
01:40PM 47.7714 -121.9328 247° West 290 334 8,300 -1,680 Descending Seattle Center
01:41PM 47.7450 -122.0428 250° West 284 327 6,600 -1,320 Descending Seattle Center
01:43PM 47.7150 -122.1686 251° West 232 267 5,400 -840 Descending Seattle Center
01:43PM 47.7006 -122.2383 253° West 234 269 5,000 -780 Descending Seattle Center
01:45PM 47.6619 -122.3197 235° Southwest 233 268 4,000 -840 Descending Seattle Center
01:46PM 47.6117 -122.3172 178° South 227 261 3,300 -960 Descending Seattle Center
01:47PM 47.5592 -122.3175 180° South 193 222 2,300 -900 Descending Seattle Center
01:48PM 47.5117 -122.3178 180° South 164 189 1,500 -840 Descending Seattle Center
01:49PM 47.4686 -122.3183 180° South 156 180 600 -600 Descending Seattle Center
01:50PM 47.4250 -122.3197 181° South 157 181 400 -240 Descending Seattle Center